createdAt,value
2022-12-19T08:52:37.608Z,95.70
2022-12-19T08:55:06.625Z,95.70
2022-12-19T08:57:33.570Z,95.70
2022-12-19T09:00:01.541Z,95.70
2022-12-19T09:02:30.473Z,95.70
2022-12-19T09:06:01.677Z,95.70
2022-12-19T09:08:05.532Z,95.70
2022-12-19T09:10:32.655Z,95.70
2022-12-19T09:12:59.556Z,95.70
2022-12-19T09:15:27.938Z,95.70
2022-12-19T09:17:57.868Z,95.70
2022-12-19T09:20:25.885Z,95.70
2022-12-19T09:22:53.295Z,95.70
2022-12-19T09:25:20.224Z,95.70
2022-12-19T09:28:25.820Z,95.70
2022-12-19T09:30:41.649Z,95.70
2022-12-19T09:33:11.850Z,95.70
2022-12-19T09:35:39.890Z,95.70
2022-12-19T09:38:08.145Z,95.70
2022-12-19T09:40:46.814Z,95.70
2022-12-19T09:43:38.058Z,95.70
2022-12-19T09:46:11.921Z,95.70
2022-12-19T09:48:39.689Z,95.70
2022-12-19T09:51:22.300Z,95.70
2022-12-19T09:54:06.703Z,95.70
2022-12-19T09:56:46.504Z,95.70
2022-12-19T09:59:16.295Z,95.70
2022-12-19T10:01:59.818Z,95.70
2022-12-19T10:04:39.982Z,95.70
2022-12-19T10:07:31.421Z,95.70
2022-12-19T10:12:33.015Z,95.70
2022-12-19T10:13:30.944Z,95.70
2022-12-19T10:16:03.838Z,95.70
2022-12-19T10:18:42.717Z,95.70
2022-12-19T10:21:42.797Z,95.70
2022-12-19T10:24:23.024Z,95.70
2022-12-19T10:26:57.714Z,95.70
2022-12-19T10:29:48.006Z,95.70
2022-12-19T10:32:41.204Z,95.70
2022-12-19T10:35:18.141Z,95.70
2022-12-19T10:38:30.663Z,95.70
2022-12-19T10:41:27.375Z,95.70
2022-12-19T10:44:04.734Z,95.70
2022-12-19T10:46:40.860Z,95.70
2022-12-19T10:49:14.657Z,95.70
2022-12-19T10:51:42.533Z,95.70
2022-12-19T10:54:09.630Z,95.70
2022-12-19T10:56:39.554Z,95.70
2022-12-19T10:59:19.748Z,95.70
2022-12-19T11:01:54.207Z,95.70
2022-12-19T11:04:33.851Z,95.70
2022-12-19T11:07:03.887Z,95.70
2022-12-19T11:09:52.427Z,95.70
2022-12-19T11:17:06.157Z,95.70
2022-12-19T11:19:13.711Z,95.70
2022-12-19T11:26:13.470Z,95.70
2022-12-19T11:29:19.482Z,95.70
2022-12-19T11:30:35.539Z,95.70
2022-12-19T11:30:36.279Z,95.70
2022-12-19T11:32:47.071Z,95.70
2022-12-19T11:35:37.017Z,95.70
2022-12-19T11:38:06.883Z,95.70
2022-12-19T11:40:48.869Z,95.70
2022-12-19T11:43:46.189Z,95.70
2022-12-19T11:46:57.203Z,95.70
2022-12-19T11:49:41.971Z,95.70
2022-12-19T11:55:48.659Z,95.70
2022-12-19T12:11:31.586Z,95.70
2022-12-19T12:22:42.148Z,95.70
2022-12-19T12:22:58.201Z,95.70
2022-12-19T12:31:21.496Z,95.70
2022-12-19T12:31:28.140Z,95.70
2022-12-19T12:31:46.587Z,95.70
2022-12-19T12:31:54.267Z,95.70
2022-12-19T12:35:54.548Z,95.70
2022-12-19T12:40:04.562Z,95.70
2022-12-19T12:42:49.778Z,95.70
2022-12-19T12:45:27.312Z,95.70
2022-12-19T12:47:57.541Z,95.70
2022-12-19T12:50:32.719Z,95.70
2022-12-19T12:53:02.677Z,95.70
2022-12-19T12:55:47.055Z,95.70
2022-12-19T12:58:53.910Z,95.70
2022-12-19T13:01:36.253Z,95.70
2022-12-19T13:04:31.816Z,95.70
2022-12-19T13:07:20.836Z,95.70
2022-12-19T13:09:54.235Z,95.70
2022-12-19T13:12:46.877Z,95.70
2022-12-19T13:15:37.220Z,95.70
2022-12-19T13:18:21.545Z,95.70
2022-12-19T13:21:02.577Z,95.70
2022-12-19T13:23:34.953Z,95.70
2022-12-19T13:26:02.967Z,95.70
2022-12-19T13:28:29.734Z,95.70
2022-12-19T13:31:19.820Z,95.70
2022-12-19T13:39:59.501Z,95.70
2022-12-19T13:40:12.245Z,95.70
2022-12-19T13:43:37.255Z,95.70
2022-12-19T13:46:28.328Z,95.70
2022-12-19T13:49:06.402Z,95.70
2022-12-19T13:51:46.731Z,95.70
2022-12-19T13:54:33.028Z,95.70
2022-12-19T13:57:02.625Z,95.70
2022-12-19T13:59:39.282Z,95.70
2022-12-19T14:02:43.709Z,95.70
2022-12-19T14:05:33.906Z,95.70
2022-12-19T14:08:29.496Z,95.70
2022-12-19T14:11:44.148Z,95.70
2022-12-19T14:14:25.829Z,95.70
2022-12-19T14:16:56.347Z,95.70
2022-12-19T14:19:26.857Z,95.70
2022-12-19T14:22:04.707Z,95.70
2022-12-19T14:24:40.489Z,95.70
2022-12-19T14:28:23.675Z,95.70
2022-12-19T14:30:27.367Z,95.70
2022-12-19T14:33:44.254Z,95.70
2022-12-19T14:36:10.560Z,95.70
2022-12-19T14:39:23.052Z,95.70
2022-12-19T14:42:07.211Z,95.70
2022-12-19T14:52:35.510Z,95.70
2022-12-19T14:54:08.206Z,95.70
2022-12-19T14:54:18.276Z,95.70
2022-12-19T14:54:33.737Z,95.70
2022-12-19T14:59:18.796Z,95.70
2022-12-19T15:01:55.618Z,95.70
2022-12-19T15:04:51.192Z,95.70
2022-12-19T15:07:25.147Z,95.70
2022-12-19T15:11:08.833Z,95.70
2022-12-19T15:14:54.530Z,95.70
2022-12-19T15:16:23.082Z,95.70
2022-12-19T15:18:50.523Z,95.70
2022-12-19T15:21:22.844Z,95.70
2022-12-19T15:23:50.297Z,95.70
2022-12-19T15:26:29.723Z,95.70
2022-12-19T15:29:00.786Z,95.70
2022-12-19T15:31:39.397Z,95.70
2022-12-19T15:34:44.328Z,95.70
2022-12-19T15:37:17.610Z,95.60
2022-12-19T15:39:46.052Z,95.50
2022-12-19T15:42:27.721Z,95.50
2022-12-19T15:44:58.173Z,95.50
2022-12-19T15:47:34.406Z,95.40
2022-12-19T15:50:09.891Z,95.30
2022-12-19T15:52:37.057Z,95.20
2022-12-19T15:55:09.508Z,95.10
2022-12-19T15:57:41.408Z,95.10
2022-12-19T16:00:36.585Z,94.90
2022-12-19T16:03:24.634Z,94.90
2022-12-19T16:05:56.721Z,94.70
2022-12-19T16:08:26.256Z,94.70
2022-12-19T16:11:01.895Z,94.40
2022-12-19T16:13:34.959Z,94.30
2022-12-19T16:16:11.141Z,94.30
2022-12-19T16:18:44.722Z,94.00
2022-12-19T16:21:27.517Z,93.60
2022-12-19T16:24:01.732Z,93.50
2022-12-19T16:26:40.515Z,93.50
2022-12-19T16:29:23.945Z,93.50
2022-12-19T16:31:51.959Z,93.50
2022-12-19T16:36:01.791Z,93.50
2022-12-19T16:56:53.898Z,92.50
2022-12-19T16:59:23.096Z,92.40
2022-12-19T17:01:51.044Z,92.30
2022-12-19T17:04:24.827Z,92.20
2022-12-19T17:06:52.953Z,92.00
2022-12-19T17:09:24.800Z,91.90
2022-12-19T17:11:58.227Z,91.80
2022-12-19T17:14:27.210Z,91.70
2022-12-19T17:16:55.388Z,91.70
2022-12-19T17:19:43.682Z,91.60
2022-12-19T17:22:15.532Z,91.50
2022-12-19T17:24:43.447Z,91.40
2022-12-19T17:27:10.346Z,91.40
2022-12-19T17:29:37.233Z,91.20
2022-12-19T17:32:07.002Z,91.30
2022-12-19T17:34:36.226Z,91.30
2022-12-19T17:37:05.607Z,90.90
2022-12-19T17:39:34.467Z,90.70
2022-12-19T17:42:11.503Z,90.50
2022-12-19T17:44:38.833Z,90.50
2022-12-19T17:47:05.931Z,90.20
2022-12-19T17:49:33.318Z,90.00
2022-12-19T17:52:00.501Z,90.00
2022-12-19T17:54:27.939Z,89.90
2022-12-19T17:56:55.802Z,89.80
2022-12-19T17:59:23.318Z,89.30
2022-12-19T18:01:50.753Z,89.40
2022-12-19T18:04:20.145Z,89.50
2022-12-19T18:06:48.147Z,89.60
2022-12-19T18:09:19.264Z,89.40
2022-12-19T18:11:47.667Z,89.10
2022-12-19T18:14:19.518Z,88.90
2022-12-19T18:16:46.672Z,88.70
2022-12-19T18:21:57.449Z,88.50
2022-12-19T18:24:26.304Z,88.50
2022-12-19T18:26:53.490Z,88.50
2022-12-19T18:29:26.876Z,88.60
2022-12-19T18:31:57.602Z,88.80
2022-12-19T18:34:26.287Z,88.50
2022-12-19T18:36:53.961Z,88.70
2022-12-19T18:39:27.017Z,88.60
2022-12-19T18:41:57.724Z,88.40
2022-12-19T18:44:28.207Z,88.40
2022-12-19T18:46:58.668Z,88.40
2022-12-19T18:49:28.087Z,88.30
2022-12-19T18:55:21.379Z,88.20
2022-12-19T18:57:54.187Z,88.00
2022-12-19T19:00:33.039Z,87.90
2022-12-19T19:03:05.183Z,88.00
2022-12-19T19:05:38.682Z,87.90
2022-12-19T19:08:32.754Z,87.60
2022-12-19T19:11:38.413Z,87.00
2022-12-19T19:14:02.136Z,87.10
2022-12-19T19:16:49.906Z,87.00
2022-12-19T19:19:49.200Z,87.30
2022-12-19T19:22:33.333Z,87.20
2022-12-19T19:25:06.996Z,87.10
2022-12-19T19:27:34.850Z,87.30
2022-12-19T19:30:17.788Z,87.30
2022-12-19T19:33:18.391Z,87.20
2022-12-19T19:36:45.434Z,87.00
2022-12-19T19:39:20.105Z,87.20
2022-12-19T19:44:36.747Z,87.00
2022-12-19T19:47:05.250Z,86.90
2022-12-19T19:49:34.750Z,86.60
2022-12-19T19:52:06.608Z,86.30
2022-12-19T19:54:47.175Z,86.20
2022-12-19T19:57:17.151Z,86.10
2022-12-19T20:00:14.252Z,86.10
2022-12-19T20:02:52.137Z,86.10
2022-12-19T20:05:28.675Z,85.90
2022-12-19T20:08:24.968Z,85.50
2022-12-19T20:11:13.224Z,85.70
2022-12-19T20:13:40.168Z,85.90
2022-12-19T20:16:18.500Z,86.10
2022-12-19T20:18:50.515Z,86.00
2022-12-19T20:21:18.507Z,86.00
2022-12-19T20:23:46.101Z,85.80
2022-12-19T20:26:37.225Z,85.40
2022-12-19T20:29:06.668Z,85.30
2022-12-19T20:31:33.760Z,85.30
2022-12-19T20:34:00.855Z,85.50
2022-12-19T20:36:31.830Z,85.60
2022-12-19T20:38:58.949Z,85.40
2022-12-19T20:41:35.329Z,85.10
2022-12-19T20:44:03.686Z,85.00
2022-12-19T20:46:45.131Z,85.00
2022-12-19T20:49:13.802Z,84.90
2022-12-19T20:51:48.891Z,85.00
2022-12-19T20:54:21.888Z,85.10
2022-12-19T20:56:51.765Z,85.10
2022-12-19T20:59:20.663Z,85.20
2022-12-19T21:01:49.670Z,85.20
2022-12-19T21:04:20.277Z,85.20
2022-12-19T21:06:58.714Z,85.20
2022-12-19T21:09:39.081Z,85.10
2022-12-19T21:12:15.675Z,84.70
2022-12-19T21:14:50.497Z,84.70
2022-12-19T21:17:20.306Z,84.80
2022-12-19T21:20:02.676Z,84.90
2022-12-19T21:22:29.700Z,84.90
2022-12-19T21:24:56.653Z,84.90
2022-12-19T21:27:30.304Z,84.80
2022-12-19T21:29:57.483Z,84.80
2022-12-19T21:32:24.667Z,84.70
2022-12-19T21:35:00.844Z,84.50
2022-12-19T21:37:27.959Z,84.50
2022-12-19T21:39:55.042Z,84.60
2022-12-19T21:42:22.147Z,84.60
2022-12-19T21:44:51.151Z,84.60
2022-12-19T21:47:20.637Z,84.60
2022-12-19T21:49:49.056Z,84.60
2022-12-19T21:52:20.470Z,84.50
2022-12-19T21:54:47.412Z,84.60
2022-12-19T21:57:14.587Z,84.40
2022-12-19T21:59:42.133Z,84.20
2022-12-19T22:02:12.423Z,84.00
2022-12-19T22:04:39.855Z,83.90
2022-12-19T22:07:13.290Z,84.00
2022-12-19T22:17:03.277Z,83.60
2022-12-19T22:19:33.639Z,83.40
2022-12-19T22:22:04.312Z,83.40
2022-12-19T22:24:31.898Z,83.50
2022-12-19T22:26:59.719Z,83.60
2022-12-19T22:29:26.895Z,83.70
2022-12-19T22:31:54.375Z,83.70
2022-12-19T22:34:22.193Z,83.80
2022-12-19T22:36:49.896Z,83.60
2022-12-19T22:39:21.502Z,83.60
2022-12-19T22:41:51.045Z,83.60
2022-12-19T22:44:21.278Z,83.40
2022-12-19T22:50:55.297Z,82.90
